Island Explorer — WDH8636 — position and weather

sailwx.info

Track history (hours):
 
Tides and Currents Weather Stations Pressure Air Temp Water Temp Dewpoint Dewpoint Depression Visibility Wind Speed Wind Dir Waves Ship Positions

Island Explorer

Owner: Stevens Towing Co., Inc, Yonges Island, SC. More information available from US FCC via Universal Licensing System and Coast Guard Vessel Documentation Center.

Last reported at 2018-Jun-22 16:57 UTC. Time now 2018-Jun-22 17:05 UTC.
Position N 35°05' W 076°32'.

Length 19 m; draft 3 m.

MMSI: 367660050.

Date/timePositionNaut miles runAvg speedWind from/ knotsBaromVisibWave heightAir tempDewpointWater temp
2018-Jun-22 16:57N 35°05' W 076°32'9 5.4
2018-Jun-22 15:21N 35°00' W 076°40'2 5.2
2018-Jun-22 15:00N 34°59' W 076°42'3 4.6
2018-Jun-22 14:17N 34°56' W 076°39'1 4.6
2018-Jun-22 14:00N 34°55' W 076°40'2 3.4
2018-Jun-22 13:30N 34°54' W 076°41'2 3.4
2018-Jun-22 13:00N 34°52' W 076°41'2 4.0
2018-Jun-22 12:30N 34°50' W 076°41'2 4.3
2018-Jun-22 11:59N 34°48' W 076°41'2 4.3
2018-Jun-22 11:30N 34°46' W 076°41'2 4.0
2018-Jun-22 11:00N 34°44' W 076°41'0 0.6
2018-Jun-22 10:30N 34°44' W 076°42'0 0.8
2018-Jun-22 10:00N 34°44' W 076°41'3 6.4
2018-Jun-22 09:30N 34°47' W 076°41'3 5.8
2018-Jun-22 09:00N 34°50' W 076°41'3 5.6
2018-Jun-22 08:30N 34°53' W 076°41'3 5.3
2018-Jun-22 08:00N 34°55' W 076°40'3 5.7
2018-Jun-22 07:27N 34°58' W 076°41'3 6.0
2018-Jun-22 06:53N 35°01' W 076°39'3 7.3
2018-Jun-22 06:30N 35°03' W 076°36'4 0.1
2018-Jun-20 05:48N 35°05' W 076°32'7 5.3
2018-Jun-20 04:29N 35°01' W 076°39'3 5.7
2018-Jun-20 03:55N 34°59' W 076°42'3 4.7
2018-Jun-20 03:11N 34°56' W 076°39'1 5.0
2018-Jun-20 03:00N 34°55' W 076°40'2 3.8
2018-Jun-20 02:30N 34°54' W 076°41'2 3.3
2018-Jun-20 02:00N 34°52' W 076°41'2 3.4
2018-Jun-20 01:30N 34°50' W 076°41'2 3.2
2018-Jun-20 01:00N 34°49' W 076°41'2 3.4
2018-Jun-20 00:30N 34°47' W 076°41'2 3.6
2018-Jun-20 00:00N 34°45' W 076°40'2 4.2
2018-Jun-19 23:30N 34°43' W 076°42'0 0.1
2018-Jun-19 23:00N 34°43' W 076°42'0 0.0
2018-Jun-19 22:30N 34°43' W 076°42'0 0.0
2018-Jun-19 22:00N 34°43' W 076°42'0 0.0
2018-Jun-19 21:30N 34°43' W 076°42'1 0.9
2018-Jun-19 20:57N 34°43' W 076°42'0 0.0
2018-Jun-19 20:30N 34°43' W 076°42'0 0.0
2018-Jun-19 20:00N 34°43' W 076°42'0 0.0
2018-Jun-19 19:29N 34°43' W 076°42'0 0.0
2018-Jun-19 19:00N 34°43' W 076°42'0 0.0
2018-Jun-19 18:30N 34°43' W 076°42'0 0.0
2018-Jun-19 18:00N 34°43' W 076°42'0 0.0
2018-Jun-19 17:29N 34°43' W 076°42'0 0.0
2018-Jun-19 17:00N 34°43' W 076°42'0 0.0
2018-Jun-19 16:30N 34°43' W 076°42'0 0.0
2018-Jun-19 16:00N 34°43' W 076°42'0 0.0
2018-Jun-19 15:30N 34°43' W 076°42'0 0.0
2018-Jun-19 15:00N 34°43' W 076°42'0 0.9
2018-Jun-19 14:30N 34°43' W 076°42'0 0.0
2018-Jun-19 14:00N 34°43' W 076°42'0 0.0
2018-Jun-19 13:30N 34°43' W 076°42'0 0.0
2018-Jun-19 13:00N 34°43' W 076°42'0 0.0
2018-Jun-19 12:30N 34°43' W 076°42'0 0.0
2018-Jun-19 12:00N 34°43' W 076°42'0 0.0
2018-Jun-19 11:30N 34°43' W 076°42'0 0.0
2018-Jun-19 11:00N 34°43' W 076°42'0 0.0
2018-Jun-19 10:30N 34°43' W 076°42'0 0.0
2018-Jun-19 10:00N 34°43' W 076°42'1 1.1
2018-Jun-19 09:30N 34°43' W 076°42'1 1.7
2018-Jun-19 09:00N 34°44' W 076°41'3 6.7
2018-Jun-19 08:30N 34°48' W 076°41'3 6.3
2018-Jun-19 08:00N 34°51' W 076°41'3 5.9
2018-Jun-19 07:30N 34°54' W 076°41'3 5.8
2018-Jun-19 07:00N 34°56' W 076°39'14 0.3
2018-Jun-17 07:22N 35°08' W 076°30'2 5.8
2018-Jun-17 06:59N 35°06' W 076°31'10 5.6
2018-Jun-17 05:14N 34°60' W 076°41'2 4.5
2018-Jun-17 04:49N 34°58' W 076°41'2 5.8
2018-Jun-17 04:25N 34°56' W 076°39'3 5.9
2018-Jun-17 03:59N 34°54' W 076°41'3 6.5
2018-Jun-17 03:30N 34°51' W 076°41'3 6.7
2018-Jun-17 03:00N 34°47' W 076°41'3 6.2
2018-Jun-17 02:30N 34°44' W 076°41'1 2.2
2018-Jun-17 01:59N 34°43' W 076°42'0 0.0
2018-Jun-17 01:30N 34°43' W 076°42'1 1.3
2018-Jun-17 01:00N 34°43' W 076°42'0 0.4
2018-Jun-17 00:30N 34°43' W 076°42'0 0.5
2018-Jun-17 00:00N 34°43' W 076°42'0 0.0
2018-Jun-16 23:30N 34°43' W 076°42'0 0.0
2018-Jun-16 23:00N 34°43' W 076°42'0 0.0
2018-Jun-16 22:30N 34°43' W 076°42'0 0.0
2018-Jun-16 22:00N 34°43' W 076°42'1 1.3
2018-Jun-16 21:30N 34°44' W 076°42'2 3.8
2018-Jun-16 21:00N 34°45' W 076°41'3 6.5
2018-Jun-16 20:30N 34°48' W 076°41'3 6.7
2018-Jun-16 20:00N 34°52' W 076°41'3 6.3
2018-Jun-16 19:30N 34°55' W 076°40'3 5.8
2018-Jun-16 19:00N 34°57' W 076°41'  
2018-Jun-13 21:07N 35°06' W 076°32'1 6.3
2018-Jun-13 20:58N 35°05' W 076°32'10 5.9
2018-Jun-13 19:19N 34°59' W 076°41'1 4.5
2018-Jun-13 19:00N 34°58' W 076°41'2 4.7
2018-Jun-13 18:30N 34°56' W 076°39'2 4.2
2018-Jun-13 17:58N 34°54' W 076°41'2 3.5
2018-Jun-13 17:30N 34°52' W 076°42'2 3.8
2018-Jun-13 17:00N 34°50' W 076°41'2 3.6
2018-Jun-13 16:30N 34°49' W 076°41'2 4.3
2018-Jun-13 16:00N 34°46' W 076°41'2 4.0
2018-Jun-13 15:30N 34°45' W 076°41'2 3.8
2018-Jun-13 15:00N 34°43' W 076°42'0 0.5
2018-Jun-13 14:30N 34°43' W 076°42'0 0.0
2018-Jun-13 14:00N 34°43' W 076°42'0 0.0
2018-Jun-13 13:30N 34°43' W 076°42'0 0.1
2018-Jun-13 13:00N 34°43' W 076°42'0 0.2
2018-Jun-13 12:30N 34°43' W 076°42'0 0.0
2018-Jun-13 12:00N 34°43' W 076°42'0 0.0
2018-Jun-13 11:30N 34°43' W 076°42'0 0.0
2018-Jun-13 11:00N 34°43' W 076°42'0 0.0
2018-Jun-13 10:30N 34°43' W 076°42'1 1.1
2018-Jun-13 10:00N 34°44' W 076°42'1 1.0
2018-Jun-13 09:30N 34°43' W 076°42'0 0.0
2018-Jun-13 09:00N 34°43' W 076°42'0 0.0
2018-Jun-13 08:30N 34°43' W 076°42'0 0.0
2018-Jun-13 08:00N 34°43' W 076°42'0 0.0
2018-Jun-13 07:30N 34°43' W 076°42'0 0.0
2018-Jun-13 07:00N 34°43' W 076°42'0 0.0
2018-Jun-13 06:30N 34°43' W 076°42'0 0.0
2018-Jun-13 06:00N 34°43' W 076°42'0 0.0
2018-Jun-13 05:30N 34°43' W 076°42'0 0.0
2018-Jun-13 05:00N 34°43' W 076°42'0 0.0
2018-Jun-13 04:30N 34°43' W 076°42'0 0.0
2018-Jun-13 04:00N 34°43' W 076°42'0 0.0
2018-Jun-13 03:30N 34°43' W 076°42'0 0.1
2018-Jun-13 03:00N 34°43' W 076°42'0 0.0
2018-Jun-13 02:30N 34°43' W 076°42'0 0.0
2018-Jun-13 02:00N 34°43' W 076°42'0 0.0
2018-Jun-13 01:30N 34°43' W 076°42'0 0.0
2018-Jun-13 01:00N 34°43' W 076°42'0 0.0
2018-Jun-13 00:30N 34°43' W 076°42'0 0.0
2018-Jun-13 00:00N 34°43' W 076°42'0 0.0
2018-Jun-12 23:30N 34°43' W 076°42'0 0.0
2018-Jun-12 23:00N 34°43' W 076°42'0 0.0
2018-Jun-12 22:30N 34°43' W 076°42'0 0.0
2018-Jun-12 22:00N 34°43' W 076°42'0 0.0
2018-Jun-12 21:30N 34°43' W 076°42'0 0.0
2018-Jun-12 21:00N 34°43' W 076°42'0 0.0
2018-Jun-12 20:30N 34°43' W 076°42'0 0.0
2018-Jun-12 20:00N 34°43' W 076°42'0 0.0
2018-Jun-12 19:26N 34°43' W 076°42'0 1.0
2018-Jun-12 19:00N 34°43' W 076°42'0 0.0
2018-Jun-12 18:30N 34°43' W 076°42'0 0.0
2018-Jun-12 18:00N 34°43' W 076°42'0 0.0
2018-Jun-12 17:30N 34°43' W 076°42'0 0.0
2018-Jun-12 16:59N 34°43' W 076°42'  
Track history (hours):
 
Tides and Currents Weather Stations Pressure Air Temp Water Temp Dewpoint Dewpoint Depression Visibility Wind Speed Wind Dir Waves Ship Positions

Island Explorer

Owner: Stevens Towing Co., Inc, Yonges Island, SC. More information available from US FCC via Universal Licensing System and Coast Guard Vessel Documentation Center.

Last reported at 2018-Jun-22 16:57 UTC. Time now 2018-Jun-22 17:05 UTC.
Position N 35°05' W 076°32'.

Length 19 m; draft 3 m.

MMSI: 367660050.

Date/timePositionNaut miles runAvg speedWind from/ knotsBaromVisibWave heightAir tempDewpointWater temp
2018-Jun-22 16:57N 35°05' W 076°32'9 5.4
2018-Jun-22 15:21N 35°00' W 076°40'2 5.2
2018-Jun-22 15:00N 34°59' W 076°42'3 4.6
2018-Jun-22 14:17N 34°56' W 076°39'1 4.6
2018-Jun-22 14:00N 34°55' W 076°40'2 3.4
2018-Jun-22 13:30N 34°54' W 076°41'2 3.4
2018-Jun-22 13:00N 34°52' W 076°41'2 4.0
2018-Jun-22 12:30N 34°50' W 076°41'2 4.3
2018-Jun-22 11:59N 34°48' W 076°41'2 4.3
2018-Jun-22 11:30N 34°46' W 076°41'2 4.0
2018-Jun-22 11:00N 34°44' W 076°41'0 0.6
2018-Jun-22 10:30N 34°44' W 076°42'0 0.8
2018-Jun-22 10:00N 34°44' W 076°41'3 6.4
2018-Jun-22 09:30N 34°47' W 076°41'3 5.8
2018-Jun-22 09:00N 34°50' W 076°41'3 5.6
2018-Jun-22 08:30N 34°53' W 076°41'3 5.3
2018-Jun-22 08:00N 34°55' W 076°40'3 5.7
2018-Jun-22 07:27N 34°58' W 076°41'3 6.0
2018-Jun-22 06:53N 35°01' W 076°39'3 7.3
2018-Jun-22 06:30N 35°03' W 076°36'4 0.1
2018-Jun-20 05:48N 35°05' W 076°32'7 5.3
2018-Jun-20 04:29N 35°01' W 076°39'3 5.7
2018-Jun-20 03:55N 34°59' W 076°42'3 4.7
2018-Jun-20 03:11N 34°56' W 076°39'1 5.0
2018-Jun-20 03:00N 34°55' W 076°40'2 3.8
2018-Jun-20 02:30N 34°54' W 076°41'2 3.3
2018-Jun-20 02:00N 34°52' W 076°41'2 3.4
2018-Jun-20 01:30N 34°50' W 076°41'2 3.2
2018-Jun-20 01:00N 34°49' W 076°41'2 3.4
2018-Jun-20 00:30N 34°47' W 076°41'2 3.6
2018-Jun-20 00:00N 34°45' W 076°40'2 4.2
2018-Jun-19 23:30N 34°43' W 076°42'0 0.1
2018-Jun-19 23:00N 34°43' W 076°42'0 0.0
2018-Jun-19 22:30N 34°43' W 076°42'0 0.0
2018-Jun-19 22:00N 34°43' W 076°42'0 0.0
2018-Jun-19 21:30N 34°43' W 076°42'1 0.9
2018-Jun-19 20:57N 34°43' W 076°42'0 0.0
2018-Jun-19 20:30N 34°43' W 076°42'0 0.0
2018-Jun-19 20:00N 34°43' W 076°42'0 0.0
2018-Jun-19 19:29N 34°43' W 076°42'0 0.0
2018-Jun-19 19:00N 34°43' W 076°42'0 0.0
2018-Jun-19 18:30N 34°43' W 076°42'0 0.0
2018-Jun-19 18:00N 34°43' W 076°42'0 0.0
2018-Jun-19 17:29N 34°43' W 076°42'0 0.0
2018-Jun-19 17:00N 34°43' W 076°42'0 0.0
2018-Jun-19 16:30N 34°43' W 076°42'0 0.0
2018-Jun-19 16:00N 34°43' W 076°42'0 0.0
2018-Jun-19 15:30N 34°43' W 076°42'0 0.0
2018-Jun-19 15:00N 34°43' W 076°42'0 0.9
2018-Jun-19 14:30N 34°43' W 076°42'0 0.0
2018-Jun-19 14:00N 34°43' W 076°42'0 0.0
2018-Jun-19 13:30N 34°43' W 076°42'0 0.0
2018-Jun-19 13:00N 34°43' W 076°42'0 0.0
2018-Jun-19 12:30N 34°43' W 076°42'0 0.0
2018-Jun-19 12:00N 34°43' W 076°42'0 0.0
2018-Jun-19 11:30N 34°43' W 076°42'0 0.0
2018-Jun-19 11:00N 34°43' W 076°42'0 0.0
2018-Jun-19 10:30N 34°43' W 076°42'0 0.0
2018-Jun-19 10:00N 34°43' W 076°42'1 1.1
2018-Jun-19 09:30N 34°43' W 076°42'1 1.7
2018-Jun-19 09:00N 34°44' W 076°41'3 6.7
2018-Jun-19 08:30N 34°48' W 076°41'3 6.3
2018-Jun-19 08:00N 34°51' W 076°41'3 5.9
2018-Jun-19 07:30N 34°54' W 076°41'3 5.8
2018-Jun-19 07:00N 34°56' W 076°39'14 0.3
2018-Jun-17 07:22N 35°08' W 076°30'2 5.8
2018-Jun-17 06:59N 35°06' W 076°31'10 5.6
2018-Jun-17 05:14N 34°60' W 076°41'2 4.5
2018-Jun-17 04:49N 34°58' W 076°41'2 5.8
2018-Jun-17 04:25N 34°56' W 076°39'3 5.9
2018-Jun-17 03:59N 34°54' W 076°41'3 6.5
2018-Jun-17 03:30N 34°51' W 076°41'3 6.7
2018-Jun-17 03:00N 34°47' W 076°41'3 6.2
2018-Jun-17 02:30N 34°44' W 076°41'1 2.2
2018-Jun-17 01:59N 34°43' W 076°42'0 0.0
2018-Jun-17 01:30N 34°43' W 076°42'1 1.3
2018-Jun-17 01:00N 34°43' W 076°42'0 0.4
2018-Jun-17 00:30N 34°43' W 076°42'0 0.5
2018-Jun-17 00:00N 34°43' W 076°42'0 0.0
2018-Jun-16 23:30N 34°43' W 076°42'0 0.0
2018-Jun-16 23:00N 34°43' W 076°42'0 0.0
2018-Jun-16 22:30N 34°43' W 076°42'0 0.0
2018-Jun-16 22:00N 34°43' W 076°42'1 1.3
2018-Jun-16 21:30N 34°44' W 076°42'2 3.8
2018-Jun-16 21:00N 34°45' W 076°41'3 6.5
2018-Jun-16 20:30N 34°48' W 076°41'3 6.7
2018-Jun-16 20:00N 34°52' W 076°41'3 6.3
2018-Jun-16 19:30N 34°55' W 076°40'3 5.8
2018-Jun-16 19:00N 34°57' W 076°41'  
2018-Jun-13 21:07N 35°06' W 076°32'1 6.3
2018-Jun-13 20:58N 35°05' W 076°32'10 5.9
2018-Jun-13 19:19N 34°59' W 076°41'1 4.5
2018-Jun-13 19:00N 34°58' W 076°41'2 4.7
2018-Jun-13 18:30N 34°56' W 076°39'2 4.2
2018-Jun-13 17:58N 34°54' W 076°41'2 3.5
2018-Jun-13 17:30N 34°52' W 076°42'2 3.8
2018-Jun-13 17:00N 34°50' W 076°41'2 3.6
2018-Jun-13 16:30N 34°49' W 076°41'2 4.3
2018-Jun-13 16:00N 34°46' W 076°41'2 4.0
2018-Jun-13 15:30N 34°45' W 076°41'2 3.8
2018-Jun-13 15:00N 34°43' W 076°42'0 0.5
2018-Jun-13 14:30N 34°43' W 076°42'0 0.0
2018-Jun-13 14:00N 34°43' W 076°42'0 0.0
2018-Jun-13 13:30N 34°43' W 076°42'0 0.1
2018-Jun-13 13:00N 34°43' W 076°42'0 0.2
2018-Jun-13 12:30N 34°43' W 076°42'0 0.0
2018-Jun-13 12:00N 34°43' W 076°42'0 0.0
2018-Jun-13 11:30N 34°43' W 076°42'0 0.0
2018-Jun-13 11:00N 34°43' W 076°42'0 0.0
2018-Jun-13 10:30N 34°43' W 076°42'1 1.1
2018-Jun-13 10:00N 34°44' W 076°42'1 1.0
2018-Jun-13 09:30N 34°43' W 076°42'0 0.0
2018-Jun-13 09:00N 34°43' W 076°42'0 0.0
2018-Jun-13 08:30N 34°43' W 076°42'0 0.0
2018-Jun-13 08:00N 34°43' W 076°42'0 0.0
2018-Jun-13 07:30N 34°43' W 076°42'0 0.0
2018-Jun-13 07:00N 34°43' W 076°42'0 0.0
2018-Jun-13 06:30N 34°43' W 076°42'0 0.0
2018-Jun-13 06:00N 34°43' W 076°42'0 0.0
2018-Jun-13 05:30N 34°43' W 076°42'0 0.0
2018-Jun-13 05:00N 34°43' W 076°42'0 0.0
2018-Jun-13 04:30N 34°43' W 076°42'0 0.0
2018-Jun-13 04:00N 34°43' W 076°42'0 0.0
2018-Jun-13 03:30N 34°43' W 076°42'0 0.1
2018-Jun-13 03:00N 34°43' W 076°42'0 0.0
2018-Jun-13 02:30N 34°43' W 076°42'0 0.0
2018-Jun-13 02:00N 34°43' W 076°42'0 0.0
2018-Jun-13 01:30N 34°43' W 076°42'0 0.0
2018-Jun-13 01:00N 34°43' W 076°42'0 0.0
2018-Jun-13 00:30N 34°43' W 076°42'0 0.0
2018-Jun-13 00:00N 34°43' W 076°42'0 0.0
2018-Jun-12 23:30N 34°43' W 076°42'0 0.0
2018-Jun-12 23:00N 34°43' W 076°42'0 0.0
2018-Jun-12 22:30N 34°43' W 076°42'0 0.0
2018-Jun-12 22:00N 34°43' W 076°42'0 0.0
2018-Jun-12 21:30N 34°43' W 076°42'0 0.0
2018-Jun-12 21:00N 34°43' W 076°42'0 0.0
2018-Jun-12 20:30N 34°43' W 076°42'0 0.0
2018-Jun-12 20:00N 34°43' W 076°42'0 0.0
2018-Jun-12 19:26N 34°43' W 076°42'0 1.0
2018-Jun-12 19:00N 34°43' W 076°42'0 0.0
2018-Jun-12 18:30N 34°43' W 076°42'0 0.0
2018-Jun-12 18:00N 34°43' W 076°42'0 0.0
2018-Jun-12 17:30N 34°43' W 076°42'0 0.0
2018-Jun-12 16:59N 34°43' W 076°42'  

Dump ship's entire track history